createdAt,value
2024-05-09T00:00:40.940Z,90.10
2024-05-09T00:01:45.174Z,90.10
2024-05-09T00:02:48.172Z,90.10
2024-05-09T00:03:51.220Z,90.20
2024-05-09T00:04:54.116Z,90.20
2024-05-09T00:05:57.126Z,90.20
2024-05-09T00:07:00.117Z,90.20
2024-05-09T00:08:02.966Z,90.20
2024-05-09T00:09:05.773Z,90.20
2024-05-09T00:10:14.503Z,90.60
2024-05-09T00:11:24.720Z,90.30
2024-05-09T00:12:27.523Z,90.40
2024-05-09T00:13:30.420Z,90.40
2024-05-09T00:14:33.327Z,90.40
2024-05-09T00:15:36.809Z,90.50
2024-05-09T00:16:39.768Z,90.60
2024-05-09T00:17:42.881Z,90.70
2024-05-09T00:18:46.063Z,90.70
2024-05-09T00:19:49.012Z,90.80
2024-05-09T00:20:51.900Z,90.90
2024-05-09T00:21:54.859Z,90.90
2024-05-09T00:22:57.651Z,91.00
2024-05-09T00:24:00.458Z,91.10
2024-05-09T00:25:03.884Z,91.10
2024-05-09T00:26:06.650Z,91.10
2024-05-09T00:27:12.699Z,91.20
2024-05-09T00:28:15.983Z,91.30
2024-05-09T00:29:18.785Z,91.40
2024-05-09T00:30:30.663Z,91.40
2024-05-09T00:31:37.149Z,91.50
2024-05-09T00:32:40.102Z,91.60
2024-05-09T00:33:43.315Z,91.60
2024-05-09T00:34:46.888Z,91.60
2024-05-09T00:35:49.625Z,91.60
2024-05-09T00:36:52.496Z,91.60
2024-05-09T00:37:55.485Z,91.60
2024-05-09T00:38:58.403Z,91.60
2024-05-09T00:40:01.358Z,91.60
2024-05-09T00:41:04.510Z,91.70
2024-05-09T00:42:07.284Z,91.70
2024-05-09T00:43:14.585Z,91.70
2024-05-09T00:44:18.308Z,91.60
2024-05-09T00:45:21.228Z,91.50
2024-05-09T00:46:24.165Z,91.50
2024-05-09T00:47:27.459Z,91.40
2024-05-09T00:48:30.866Z,91.50
2024-05-09T00:49:34.568Z,91.50
2024-05-09T00:50:44.723Z,91.60
2024-05-09T00:51:47.649Z,91.70
2024-05-09T00:52:51.115Z,91.80
2024-05-09T00:53:54.167Z,91.90
2024-05-09T00:54:58.007Z,91.90
2024-05-09T00:56:01.765Z,91.90
2024-05-09T00:57:05.784Z,91.90
2024-05-09T00:58:11.695Z,92.00
2024-05-09T00:59:14.682Z,92.10
2024-05-09T01:00:26.536Z,92.20
2024-05-09T01:01:35.414Z,92.30
2024-05-09T01:02:39.513Z,92.40
2024-05-09T01:03:42.563Z,92.30
2024-05-09T01:04:45.669Z,92.30
2024-05-09T01:05:48.777Z,92.20
2024-05-09T01:06:51.640Z,92.20
2024-05-09T01:07:54.515Z,92.20
2024-05-09T01:08:57.391Z,92.10
2024-05-09T01:10:00.218Z,92.10
2024-05-09T01:11:03.197Z,92.20
2024-05-09T01:12:06.359Z,92.20
2024-05-09T01:13:09.608Z,92.10
2024-05-09T01:14:12.514Z,92.00
2024-05-09T01:15:15.513Z,91.90
2024-05-09T01:16:18.535Z,91.90
2024-05-09T01:17:21.484Z,91.90
2024-05-09T01:18:24.894Z,91.90
2024-05-09T01:19:31.029Z,92.00
2024-05-09T01:20:41.123Z,91.90
2024-05-09T01:21:46.581Z,91.90
2024-05-09T01:22:49.733Z,91.90
2024-05-09T01:23:52.529Z,92.00
2024-05-09T01:24:55.354Z,92.10
2024-05-09T01:25:58.163Z,92.20
2024-05-09T01:27:00.960Z,92.30
2024-05-09T01:28:03.826Z,92.40
2024-05-09T01:29:07.300Z,92.50
2024-05-09T01:30:16.998Z,92.50
2024-05-09T01:31:23.761Z,92.50
2024-05-09T01:32:26.936Z,92.60
2024-05-09T01:33:30.385Z,92.60
2024-05-09T01:34:33.152Z,92.70
2024-05-09T01:35:35.919Z,92.90
2024-05-09T01:36:38.919Z,93.00
2024-05-09T01:37:41.728Z,92.60
2024-05-09T01:38:44.698Z,92.70
2024-05-09T01:39:47.534Z,93.00
2024-05-09T01:40:50.657Z,92.70
2024-05-09T01:41:53.587Z,92.70
2024-05-09T01:42:56.406Z,92.70
2024-05-09T01:43:59.251Z,92.70
2024-05-09T01:45:02.171Z,92.60
2024-05-09T01:46:05.149Z,92.60
2024-05-09T01:47:08.256Z,92.60
2024-05-09T01:48:11.741Z,92.70
2024-05-09T01:49:14.779Z,92.70
2024-05-09T01:50:22.489Z,92.70
2024-05-09T01:51:31.792Z,92.70
2024-05-09T01:52:38.716Z,92.70
2024-05-09T01:53:41.570Z,92.60
2024-05-09T01:54:44.466Z,92.60
2024-05-09T01:55:47.587Z,92.60
2024-05-09T01:56:50.574Z,92.60
2024-05-09T01:57:53.600Z,92.70
2024-05-09T01:58:56.582Z,92.70
2024-05-09T01:59:59.661Z,93.10
2024-05-09T02:01:02.711Z,92.90
2024-05-09T02:02:05.877Z,93.00
2024-05-09T02:03:16.421Z,93.10
2024-05-09T02:04:20.775Z,93.30
2024-05-09T02:05:23.835Z,93.30
2024-05-09T02:06:26.783Z,93.50
2024-05-09T02:07:31.301Z,93.60
2024-05-09T02:08:34.331Z,93.70
2024-05-09T02:09:37.305Z,93.80
2024-05-09T02:10:40.557Z,93.80
2024-05-09T02:11:49.237Z,93.80
2024-05-09T02:12:52.078Z,94.00
2024-05-09T02:13:54.995Z,94.10
2024-05-09T02:14:58.997Z,94.20
2024-05-09T02:16:02.442Z,94.20
2024-05-09T02:17:06.999Z,94.20
2024-05-09T02:18:10.590Z,94.20
2024-05-09T02:19:14.120Z,94.20
2024-05-09T02:20:23.161Z,94.30
2024-05-09T02:21:34.527Z,94.30
2024-05-09T02:22:37.440Z,94.30
2024-05-09T02:23:40.353Z,94.40
2024-05-09T02:24:43.258Z,94.40
2024-05-09T02:25:46.094Z,94.50
2024-05-09T02:26:49.109Z,94.50
2024-05-09T02:27:52.130Z,94.60
2024-05-09T02:28:55.112Z,94.70
2024-05-09T02:29:58.042Z,94.80
2024-05-09T02:31:00.822Z,94.90
2024-05-09T02:32:03.748Z,94.90
2024-05-09T02:33:07.143Z,95.00
2024-05-09T02:34:10.260Z,95.00
2024-05-09T02:35:13.101Z,95.10
2024-05-09T02:36:15.998Z,95.60
2024-05-09T02:37:18.912Z,95.70
2024-05-09T02:38:21.745Z,95.90
2024-05-09T02:39:24.723Z,96.00
2024-05-09T02:40:35.738Z,96.30
2024-05-09T02:41:40.870Z,96.40
2024-05-09T02:42:43.781Z,96.60
2024-05-09T02:43:46.873Z,96.70
2024-05-09T02:44:49.795Z,96.70
2024-05-09T02:45:52.517Z,96.90
2024-05-09T02:46:55.516Z,97.00
2024-05-09T02:47:58.837Z,97.10
2024-05-09T02:49:02.136Z,97.20
2024-05-09T02:50:07.768Z,97.20
2024-05-09T02:51:11.001Z,97.30
2024-05-09T02:52:15.557Z,97.40
2024-05-09T02:53:21.531Z,97.50
2024-05-09T02:54:24.420Z,97.50
2024-05-09T02:55:27.141Z,97.70
2024-05-09T02:56:30.063Z,97.80
2024-05-09T02:57:32.993Z,97.90
2024-05-09T02:58:35.865Z,98.10
2024-05-09T02:59:38.754Z,98.20
2024-05-09T03:00:42.950Z,98.40
2024-05-09T03:01:46.339Z,98.50
2024-05-09T03:02:49.437Z,98.70
2024-05-09T03:03:52.494Z,98.70
2024-05-09T03:04:55.742Z,98.80
2024-05-09T03:05:58.753Z,98.90
2024-05-09T03:07:01.793Z,98.90
2024-05-09T03:08:05.048Z,99.00
2024-05-09T03:09:09.892Z,99.00
2024-05-09T03:10:18.590Z,99.10
2024-05-09T03:11:28.320Z,99.20
2024-05-09T03:12:31.356Z,99.40
2024-05-09T03:13:34.282Z,99.40
2024-05-09T03:14:37.210Z,99.50
2024-05-09T03:15:40.496Z,99.90
2024-05-09T03:16:43.391Z,99.70
2024-05-09T03:17:46.394Z,99.90
2024-05-09T03:18:49.583Z,99.90
2024-05-09T03:19:52.410Z,99.90
2024-05-09T03:20:55.351Z,99.90
2024-05-09T03:21:59.638Z,99.90
2024-05-09T03:23:02.858Z,99.90
2024-05-09T03:24:06.724Z,99.90
2024-05-09T03:25:09.617Z,99.90
2024-05-09T03:26:17.034Z,99.90
2024-05-09T03:27:20.001Z,99.90
2024-05-09T03:28:22.824Z,99.90
2024-05-09T03:29:26.126Z,99.90
2024-05-09T03:30:36.243Z,99.90
2024-05-09T03:31:44.298Z,99.90
2024-05-09T03:32:47.248Z,99.90
2024-05-09T03:33:50.275Z,99.90
2024-05-09T03:34:53.072Z,99.90
2024-05-09T03:35:55.843Z,99.90
2024-05-09T03:36:58.722Z,99.90
2024-05-09T03:38:01.656Z,99.90
2024-05-09T03:39:04.728Z,99.90
2024-05-09T03:40:11.922Z,99.90
2024-05-09T03:41:21.200Z,99.90
2024-05-09T03:42:24.104Z,99.90
2024-05-09T03:43:26.880Z,99.90
2024-05-09T03:44:29.786Z,99.90
2024-05-09T03:45:32.668Z,99.90
2024-05-09T03:46:39.340Z,99.90
2024-05-09T03:47:42.593Z,99.90
2024-05-09T03:48:45.817Z,99.90
2024-05-09T03:49:51.528Z,99.90
2024-05-09T03:50:54.451Z,99.90
2024-05-09T03:51:57.301Z,99.90
2024-05-09T03:53:00.541Z,99.90
2024-05-09T03:54:04.373Z,99.90
2024-05-09T03:55:07.510Z,99.90
2024-05-09T03:56:10.324Z,99.90
2024-05-09T03:57:13.161Z,99.90
2024-05-09T03:58:15.871Z,99.90
2024-05-09T03:59:19.976Z,99.90
2024-05-09T04:00:31.100Z,99.90
2024-05-09T04:01:40.382Z,99.90
2024-05-09T04:02:44.287Z,99.90
2024-05-09T04:03:47.504Z,99.90
2024-05-09T04:04:50.730Z,99.90
2024-05-09T04:05:53.899Z,99.90
2024-05-09T04:06:56.944Z,99.90
2024-05-09T04:07:59.882Z,99.90
2024-05-09T04:09:02.844Z,99.90
2024-05-09T04:10:08.918Z,99.90
2024-05-09T04:11:11.981Z,99.90
2024-05-09T04:12:14.956Z,99.90
2024-05-09T04:13:17.985Z,99.90
2024-05-09T04:14:20.925Z,99.90
2024-05-09T04:15:24.697Z,99.90
2024-05-09T04:16:27.632Z,99.90
2024-05-09T04:17:30.690Z,99.90
2024-05-09T04:18:33.755Z,99.90
2024-05-09T04:19:36.924Z,99.90
2024-05-09T04:20:41.273Z,99.90
2024-05-09T04:21:44.449Z,99.90
2024-05-09T04:22:47.450Z,99.90
2024-05-09T04:23:50.505Z,99.90
2024-05-09T04:24:53.429Z,99.90
2024-05-09T04:25:56.541Z,99.90
2024-05-09T04:26:59.438Z,99.90
2024-05-09T04:28:02.410Z,99.90
2024-05-09T04:29:05.362Z,99.90
2024-05-09T04:30:15.278Z,99.90
2024-05-09T04:31:21.888Z,99.90
2024-05-09T04:32:24.923Z,99.90
2024-05-09T04:33:28.291Z,99.90
2024-05-09T04:34:31.320Z,99.90
2024-05-09T04:35:35.530Z,99.90
2024-05-09T04:36:40.280Z,99.90
2024-05-09T04:37:44.882Z,99.90
2024-05-09T04:38:47.884Z,99.90
2024-05-09T04:39:50.868Z,99.90
2024-05-09T04:40:53.876Z,99.90
2024-05-09T04:41:57.073Z,99.90
2024-05-09T04:42:59.955Z,99.90
2024-05-09T04:44:02.877Z,99.90
2024-05-09T04:45:06.051Z,99.90
2024-05-09T04:46:08.982Z,99.90
2024-05-09T04:47:11.950Z,99.90
2024-05-09T04:48:15.230Z,99.90
2024-05-09T04:49:18.495Z,99.90
2024-05-09T04:50:30.005Z,99.90
2024-05-09T04:51:38.880Z,99.90
2024-05-09T04:52:41.740Z,99.90
2024-05-09T04:53:44.872Z,99.90
2024-05-09T04:54:48.151Z,99.90
2024-05-09T04:55:51.355Z,99.90
2024-05-09T04:56:54.245Z,99.90
2024-05-09T04:57:57.148Z,99.90
2024-05-09T04:59:00.410Z,99.90
2024-05-09T05:00:07.137Z,99.90
2024-05-09T05:01:12.339Z,99.90
2024-05-09T05:02:15.323Z,99.90
2024-05-09T05:03:18.703Z,99.90
2024-05-09T05:04:21.874Z,99.90
2024-05-09T05:05:24.593Z,99.90
2024-05-09T05:06:27.615Z,99.90
2024-05-09T05:07:30.536Z,99.90
2024-05-09T05:08:33.426Z,99.90
2024-05-09T05:09:36.537Z,99.90
2024-05-09T05:10:39.585Z,99.90
2024-05-09T05:11:42.477Z,99.90
2024-05-09T05:13:04.645Z,99.90
2024-05-09T05:14:07.664Z,99.90
2024-05-09T05:15:10.539Z,99.90
2024-05-09T05:16:13.239Z,99.90
2024-05-09T05:17:16.149Z,99.90
2024-05-09T05:18:19.417Z,99.90
2024-05-09T05:19:22.639Z,99.90
2024-05-09T05:20:32.682Z,99.90
2024-05-09T05:21:36.625Z,99.90
2024-05-09T05:22:43.183Z,99.90
2024-05-09T05:23:46.209Z,99.90
2024-05-09T05:24:49.033Z,99.90
2024-05-09T05:25:53.939Z,99.90
2024-05-09T05:26:57.090Z,99.90
2024-05-09T05:28:00.127Z,99.90
2024-05-09T05:29:03.041Z,99.90
2024-05-09T05:30:09.556Z,99.90
2024-05-09T05:31:17.468Z,99.90
2024-05-09T05:32:20.496Z,99.90
2024-05-09T05:33:23.836Z,99.90
2024-05-09T05:34:26.773Z,99.90
2024-05-09T05:35:29.683Z,99.90
2024-05-09T05:36:32.727Z,99.90
2024-05-09T05:37:36.530Z,99.60
2024-05-09T05:38:39.503Z,99.50
2024-05-09T05:39:42.322Z,99.30
2024-05-09T05:40:45.479Z,99.20
2024-05-09T05:41:48.376Z,99.00
2024-05-09T05:42:51.254Z,98.80
2024-05-09T05:43:54.116Z,98.60
2024-05-09T05:44:56.900Z,98.30
2024-05-09T05:45:59.770Z,98.10
2024-05-09T05:47:02.850Z,98.00
2024-05-09T05:48:06.947Z,97.80
2024-05-09T05:49:10.541Z,97.60
2024-05-09T05:50:23.782Z,97.50
2024-05-09T05:51:30.519Z,97.40
2024-05-09T05:52:33.399Z,97.30
2024-05-09T05:53:36.434Z,97.30
2024-05-09T05:54:39.404Z,97.20
2024-05-09T05:55:42.833Z,97.20
2024-05-09T05:56:45.805Z,97.30
2024-05-09T05:57:48.741Z,97.30
2024-05-09T05:58:51.800Z,97.10
2024-05-09T05:59:54.902Z,97.10
2024-05-09T06:00:57.648Z,96.90
2024-05-09T06:02:00.584Z,96.70
2024-05-09T06:03:05.667Z,96.50
2024-05-09T06:04:08.850Z,96.30
2024-05-09T06:05:11.864Z,96.10
2024-05-09T06:06:14.867Z,95.90
2024-05-09T06:07:17.548Z,95.70
2024-05-09T06:08:21.365Z,95.50
2024-05-09T06:09:24.201Z,95.40
2024-05-09T06:10:36.975Z,95.20
2024-05-09T06:11:43.348Z,95.10
2024-05-09T06:12:46.189Z,95.00
2024-05-09T06:13:49.650Z,95.00
2024-05-09T06:14:52.603Z,95.00
2024-05-09T06:15:55.785Z,95.00
2024-05-09T06:16:58.742Z,94.90
2024-05-09T06:18:01.971Z,94.90
2024-05-09T06:19:05.124Z,94.90
2024-05-09T06:20:16.336Z,94.80
2024-05-09T06:21:23.311Z,94.60
2024-05-09T06:22:26.240Z,94.50
2024-05-09T06:23:29.109Z,94.40
2024-05-09T06:24:32.107Z,94.40
2024-05-09T06:25:36.059Z,94.40
2024-05-09T06:26:42.622Z,94.60
2024-05-09T06:27:45.582Z,94.70
2024-05-09T06:28:48.454Z,94.70
2024-05-09T06:29:51.330Z,94.60
2024-05-09T06:30:54.161Z,94.40
2024-05-09T06:31:59.930Z,94.30
2024-05-09T06:33:03.169Z,94.30
2024-05-09T06:34:06.307Z,94.10
2024-05-09T06:35:09.282Z,93.80
2024-05-09T06:36:12.468Z,93.50
2024-05-09T06:37:15.545Z,93.30
2024-05-09T06:38:18.562Z,93.10
2024-05-09T06:39:21.500Z,92.90
2024-05-09T06:40:29.320Z,92.70
2024-05-09T06:41:37.838Z,92.60
2024-05-09T06:42:40.620Z,92.70
2024-05-09T06:43:43.997Z,92.70
2024-05-09T06:44:46.949Z,92.60
2024-05-09T06:45:50.541Z,92.30
2024-05-09T06:46:55.698Z,92.10
2024-05-09T06:48:00.191Z,92.00
2024-05-09T06:49:08.242Z,91.90
2024-05-09T06:50:19.636Z,92.00
2024-05-09T06:51:26.674Z,92.30
2024-05-09T06:52:29.477Z,92.30
2024-05-09T06:53:32.463Z,92.00
2024-05-09T06:54:38.046Z,91.60
2024-05-09T06:55:41.122Z,91.40
2024-05-09T06:56:44.113Z,91.20
2024-05-09T06:57:46.976Z,90.90
2024-05-09T06:58:49.866Z,90.70
2024-05-09T06:59:52.876Z,90.80
2024-05-09T07:00:55.727Z,90.70
2024-05-09T07:01:58.870Z,90.90
2024-05-09T07:03:04.792Z,91.00
2024-05-09T07:04:08.758Z,90.90
2024-05-09T07:05:11.652Z,90.50
2024-05-09T07:06:14.606Z,90.20
2024-05-09T07:07:17.402Z,90.00
2024-05-09T07:08:20.414Z,89.70
2024-05-09T07:09:23.304Z,89.30
2024-05-09T07:10:32.788Z,88.80
2024-05-09T07:11:38.403Z,88.70
2024-05-09T07:12:41.206Z,88.90
2024-05-09T07:13:44.171Z,88.00
2024-05-09T07:14:47.230Z,86.50
2024-05-09T07:15:50.028Z,85.10
2024-05-09T07:16:53.060Z,83.70
2024-05-09T07:17:56.088Z,82.80
2024-05-09T07:19:00.508Z,82.50
2024-05-09T07:20:05.486Z,82.10
2024-05-09T07:21:09.883Z,81.50
2024-05-09T07:22:12.645Z,81.00
2024-05-09T07:23:16.134Z,80.80
2024-05-09T07:24:19.231Z,80.90
2024-05-09T07:25:22.090Z,80.90
2024-05-09T07:26:25.074Z,80.50
2024-05-09T07:27:28.200Z,80.40
2024-05-09T07:28:31.074Z,80.50
2024-05-09T07:29:38.358Z,80.40
2024-05-09T07:30:41.790Z,80.10
2024-05-09T07:31:44.770Z,80.00
2024-05-09T07:32:48.189Z,80.40
2024-05-09T07:33:51.433Z,80.10
2024-05-09T07:34:54.293Z,80.00
2024-05-09T07:35:57.675Z,79.60
2024-05-09T07:37:02.153Z,79.30
2024-05-09T07:38:05.271Z,79.00
2024-05-09T07:39:08.325Z,78.80
2024-05-09T07:40:17.691Z,78.60
2024-05-09T07:41:27.424Z,78.70
2024-05-09T07:42:30.513Z,78.50
2024-05-09T07:43:36.050Z,78.50
2024-05-09T07:44:39.083Z,77.90
2024-05-09T07:45:51.425Z,77.90
2024-05-09T07:50:53.461Z,78.40
2024-05-09T07:52:23.009Z,77.90
2024-05-09T07:53:22.077Z,78.30
2024-05-09T07:53:39.389Z,78.50
2024-05-09T07:54:48.262Z,77.80
2024-05-09T07:55:51.293Z,76.80
2024-05-09T07:56:54.718Z,76.20
2024-05-09T07:57:58.244Z,76.30
2024-05-09T07:59:01.208Z,76.70
2024-05-09T08:00:04.593Z,76.00
2024-05-09T08:01:09.009Z,75.10
2024-05-09T08:02:12.106Z,74.90
2024-05-09T08:03:15.220Z,74.60
2024-05-09T08:04:18.390Z,74.10
2024-05-09T08:05:21.462Z,74.10
2024-05-09T08:06:24.952Z,74.20
2024-05-09T08:07:27.677Z,74.00
2024-05-09T08:08:30.448Z,74.10
2024-05-09T08:09:34.230Z,73.60
2024-05-09T08:10:38.115Z,73.30
2024-05-09T08:11:41.094Z,73.00
2024-05-09T08:12:47.151Z,72.30
2024-05-09T08:13:50.088Z,71.60
2024-05-09T08:14:55.930Z,71.90
2024-05-09T08:15:59.019Z,72.00
2024-05-09T08:17:02.661Z,71.50
2024-05-09T08:18:10.155Z,71.10
2024-05-09T08:19:13.288Z,70.10
2024-05-09T08:20:26.466Z,68.90
2024-05-09T08:21:33.728Z,68.50
2024-05-09T08:22:36.894Z,68.10
2024-05-09T08:23:41.402Z,67.40
2024-05-09T08:24:45.841Z,66.60
2024-05-09T08:25:48.698Z,66.00
2024-05-09T08:26:53.360Z,64.40
2024-05-09T08:27:56.483Z,62.50
2024-05-09T08:29:00.006Z,61.00
2024-05-09T08:30:03.301Z,60.50
2024-05-09T08:31:07.328Z,60.20
2024-05-09T08:32:14.844Z,59.60
2024-05-09T08:33:20.197Z,58.60
2024-05-09T08:34:23.456Z,58.70
2024-05-09T08:35:26.444Z,59.20
2024-05-09T08:36:29.587Z,59.70
2024-05-09T08:37:36.864Z,60.10
2024-05-09T08:38:41.786Z,60.10
2024-05-09T08:39:49.567Z,58.60
2024-05-09T08:40:58.279Z,57.70
2024-05-09T08:42:05.254Z,57.40
2024-05-09T08:43:12.430Z,57.20
2024-05-09T08:44:17.707Z,56.90
2024-05-09T08:45:20.636Z,56.70
2024-05-09T08:46:23.567Z,56.80
2024-05-09T08:47:31.517Z,57.30
2024-05-09T08:48:39.017Z,57.70
2024-05-09T08:49:42.260Z,57.90
2024-05-09T08:50:46.083Z,58.00
2024-05-09T08:51:49.130Z,58.40
2024-05-09T08:52:52.184Z,58.50
2024-05-09T08:53:55.411Z,58.60
2024-05-09T08:54:58.445Z,59.10
2024-05-09T08:56:02.954Z,59.50
2024-05-09T08:57:06.997Z,60.30
2024-05-09T08:58:14.363Z,60.60
2024-05-09T08:59:21.712Z,60.60
2024-05-09T09:00:33.767Z,61.20
2024-05-09T09:01:42.913Z,61.60
2024-05-09T09:02:46.750Z,61.60
2024-05-09T09:03:53.682Z,61.80
2024-05-09T09:05:17.847Z,61.60
2024-05-09T09:06:22.538Z,61.40
2024-05-09T09:07:26.824Z,61.40
2024-05-09T09:08:29.966Z,61.60
2024-05-09T09:09:34.575Z,62.00
2024-05-09T09:10:40.179Z,62.20
2024-05-09T09:11:43.247Z,62.20
2024-05-09T09:12:46.527Z,61.30
2024-05-09T09:13:50.214Z,61.00
2024-05-09T09:14:53.140Z,60.70
2024-05-09T09:15:59.182Z,60.60
2024-05-09T09:17:16.282Z,60.60
2024-05-09T09:18:19.495Z,60.30
2024-05-09T09:19:23.803Z,60.40
2024-05-09T09:20:36.434Z,61.00
2024-05-09T09:21:40.112Z,61.80
2024-05-09T09:22:42.856Z,62.30
2024-05-09T09:23:46.266Z,62.30
2024-05-09T09:24:50.485Z,61.90
2024-05-09T09:25:53.781Z,62.10
2024-05-09T09:27:00.130Z,62.60
2024-05-09T09:28:04.938Z,62.80
2024-05-09T09:29:07.851Z,62.60
2024-05-09T09:30:22.958Z,62.40
2024-05-09T09:31:33.833Z,62.20
2024-05-09T09:32:37.218Z,62.60
2024-05-09T09:33:43.791Z,62.50
2024-05-09T09:34:48.511Z,61.80
2024-05-09T09:35:52.279Z,61.90
2024-05-09T09:37:03.734Z,62.30
2024-05-09T09:38:08.472Z,62.20
2024-05-09T09:39:17.224Z,62.30
2024-05-09T09:40:31.695Z,61.90
2024-05-09T09:41:38.747Z,61.80
2024-05-09T09:42:43.462Z,61.60
2024-05-09T09:43:46.500Z,61.50
2024-05-09T09:45:01.808Z,61.60
2024-05-09T09:46:12.327Z,61.90
2024-05-09T09:47:17.380Z,62.10
2024-05-09T09:48:22.747Z,61.80
2024-05-09T09:49:27.365Z,61.10
2024-05-09T09:50:34.477Z,60.90
2024-05-09T09:51:43.875Z,61.00
2024-05-09T09:52:48.090Z,61.20
2024-05-09T09:53:53.510Z,61.20
2024-05-09T09:54:57.919Z,61.30
2024-05-09T09:56:02.429Z,61.30
2024-05-09T09:57:06.245Z,61.20
2024-05-09T09:58:13.212Z,61.00
2024-05-09T09:59:17.368Z,61.10
2024-05-09T10:00:27.428Z,61.40
2024-05-09T10:01:36.597Z,61.70
2024-05-09T10:02:42.655Z,62.30
2024-05-09T10:03:45.780Z,63.00
2024-05-09T10:04:49.195Z,62.80
2024-05-09T10:05:52.694Z,62.60
2024-05-09T10:07:00.040Z,62.30
2024-05-09T10:08:07.865Z,61.80
2024-05-09T10:09:16.613Z,61.30
2024-05-09T10:10:31.657Z,60.90
2024-05-09T10:11:42.088Z,60.70
2024-05-09T10:13:05.004Z,60.30
2024-05-09T10:14:08.172Z,59.90
2024-05-09T10:15:12.279Z,59.20
2024-05-09T10:16:24.631Z,59.60
2024-05-09T10:17:27.873Z,60.20
2024-05-09T10:18:41.245Z,60.70
2024-05-09T10:19:44.858Z,60.90
2024-05-09T10:20:53.096Z,61.20
2024-05-09T10:22:03.111Z,61.30
2024-05-09T10:23:05.929Z,61.80
2024-05-09T10:24:08.906Z,61.70
2024-05-09T10:25:12.680Z,61.00
2024-05-09T10:26:16.002Z,60.70
2024-05-09T10:27:28.215Z,60.60
2024-05-09T10:28:37.239Z,61.00
2024-05-09T10:29:40.272Z,62.00
2024-05-09T10:30:43.873Z,62.20
2024-05-09T10:31:48.513Z,63.30
2024-05-09T10:32:54.718Z,62.80
2024-05-09T10:33:57.892Z,61.00
2024-05-09T10:35:15.202Z,59.60
2024-05-09T10:36:27.485Z,59.40
2024-05-09T10:37:32.531Z,58.50
2024-05-09T10:38:35.521Z,58.40
2024-05-09T10:39:39.647Z,59.10
2024-05-09T10:40:44.328Z,59.10
2024-05-09T10:41:47.220Z,58.60
2024-05-09T10:42:50.228Z,60.00
2024-05-09T10:43:53.380Z,60.20
2024-05-09T10:44:57.076Z,58.30
2024-05-09T10:46:00.313Z,57.90
2024-05-09T10:47:03.569Z,57.80
2024-05-09T10:48:07.314Z,57.90
2024-05-09T10:49:10.527Z,57.70
2024-05-09T10:50:22.231Z,57.50
2024-05-09T10:51:31.088Z,57.70
2024-05-09T10:52:35.531Z,58.00
2024-05-09T10:53:45.966Z,58.40
2024-05-09T10:54:54.254Z,58.10
2024-05-09T10:56:01.349Z,57.90
2024-05-09T10:57:04.584Z,57.60
2024-05-09T10:58:18.277Z,57.90
2024-05-09T10:59:21.133Z,58.20
2024-05-09T11:00:30.540Z,58.30
2024-05-09T11:01:38.917Z,57.60
2024-05-09T11:02:42.123Z,57.80
2024-05-09T11:03:49.769Z,57.90
2024-05-09T11:04:53.340Z,57.90
2024-05-09T11:05:56.482Z,57.90
2024-05-09T11:07:02.805Z,58.00
2024-05-09T11:08:06.976Z,58.10
2024-05-09T11:09:10.055Z,58.20
2024-05-09T11:10:14.809Z,58.00
2024-05-09T11:11:20.935Z,57.90
2024-05-09T11:12:24.913Z,57.70
2024-05-09T11:13:32.293Z,57.70
2024-05-09T11:14:35.739Z,58.00
2024-05-09T11:15:42.040Z,58.80
2024-05-09T11:16:44.870Z,58.90
2024-05-09T11:17:47.814Z,58.60
2024-05-09T11:18:58.240Z,58.40
2024-05-09T11:20:13.365Z,58.40
2024-05-09T11:21:20.424Z,58.10
2024-05-09T11:22:25.298Z,58.40
2024-05-09T11:23:30.891Z,57.90
2024-05-09T11:24:35.619Z,57.90
2024-05-09T11:25:38.627Z,57.70
2024-05-09T11:26:42.708Z,57.30
2024-05-09T11:27:46.194Z,56.60
2024-05-09T11:28:50.975Z,56.40
2024-05-09T11:29:54.222Z,56.70
2024-05-09T11:31:10.543Z,56.70
2024-05-09T11:32:19.237Z,57.00
2024-05-09T11:33:22.846Z,57.00
2024-05-09T11:34:25.830Z,56.10
2024-05-09T11:35:29.533Z,56.20
2024-05-09T11:36:32.508Z,55.90
2024-05-09T11:37:36.871Z,55.80
2024-05-09T11:38:40.533Z,55.50
2024-05-09T11:39:43.483Z,54.90
2024-05-09T11:40:46.498Z,54.80
2024-05-09T11:41:49.433Z,54.90
2024-05-09T11:42:53.431Z,54.90
2024-05-09T11:43:58.051Z,55.00
2024-05-09T11:45:00.989Z,54.90
2024-05-09T11:46:04.314Z,54.90
2024-05-09T11:47:07.321Z,54.60
2024-05-09T11:48:10.579Z,54.30
2024-05-09T11:49:13.830Z,54.50
2024-05-09T11:50:26.719Z,54.60
2024-05-09T11:51:33.063Z,54.40
2024-05-09T11:52:35.938Z,54.40
2024-05-09T11:53:45.668Z,54.50
2024-05-09T11:54:51.408Z,54.30
2024-05-09T11:55:55.262Z,53.70
2024-05-09T11:56:58.088Z,53.50
2024-05-09T11:58:00.947Z,53.70
2024-05-09T11:59:04.188Z,53.90
2024-05-09T12:00:09.676Z,53.90
2024-05-09T12:01:15.332Z,53.80
2024-05-09T12:02:18.388Z,53.60
2024-05-09T12:03:21.546Z,53.60
2024-05-09T12:04:24.596Z,53.30
2024-05-09T12:05:28.224Z,53.50
2024-05-09T12:06:31.300Z,53.60
2024-05-09T12:07:34.161Z,53.90
2024-05-09T12:08:40.102Z,54.40
2024-05-09T12:09:43.276Z,54.40
2024-05-09T12:10:46.724Z,54.30
2024-05-09T12:11:49.793Z,54.10
2024-05-09T12:12:53.072Z,54.00
2024-05-09T12:13:56.127Z,53.90
2024-05-09T12:14:58.890Z,53.20
2024-05-09T12:16:01.915Z,53.50
2024-05-09T12:17:05.900Z,53.80
2024-05-09T12:18:09.054Z,53.50
2024-05-09T12:19:12.022Z,53.30
2024-05-09T12:20:21.527Z,52.90
2024-05-09T12:21:31.557Z,53.00
2024-05-09T12:22:34.313Z,53.20
2024-05-09T12:23:37.343Z,53.10
2024-05-09T12:24:40.303Z,53.40
2024-05-09T12:25:43.575Z,53.40
2024-05-09T12:26:47.596Z,53.70
2024-05-09T12:27:50.564Z,53.70
2024-05-09T12:28:54.334Z,53.70
2024-05-09T12:29:57.670Z,53.70
2024-05-09T12:31:00.782Z,53.60
2024-05-09T12:32:04.060Z,53.00
2024-05-09T12:33:08.985Z,52.70
2024-05-09T12:34:12.392Z,52.70
2024-05-09T12:35:15.282Z,52.70
2024-05-09T12:36:18.194Z,53.00
2024-05-09T12:37:21.080Z,53.10
2024-05-09T12:38:23.957Z,53.10
2024-05-09T12:39:27.017Z,53.20
2024-05-09T12:40:36.058Z,53.40
2024-05-09T12:41:41.263Z,53.20
2024-05-09T12:42:44.121Z,52.80
2024-05-09T12:43:46.962Z,52.40
2024-05-09T12:44:49.836Z,52.20
2024-05-09T12:45:52.962Z,51.70
2024-05-09T12:46:55.897Z,51.60
2024-05-09T12:47:59.073Z,51.50
2024-05-09T12:49:02.173Z,51.50
2024-05-09T12:50:08.293Z,51.60
2024-05-09T12:51:16.142Z,51.50
2024-05-09T12:52:19.014Z,50.50
2024-05-09T12:53:21.849Z,48.90
2024-05-09T12:54:24.822Z,49.20
2024-05-09T12:55:28.520Z,48.30
2024-05-09T12:56:33.793Z,48.70
2024-05-09T12:57:36.777Z,48.70
2024-05-09T12:58:39.899Z,48.30
2024-05-09T12:59:43.697Z,48.30
2024-05-09T13:00:47.505Z,48.40
2024-05-09T13:01:50.536Z,48.60
2024-05-09T13:02:53.345Z,48.80
2024-05-09T13:03:56.760Z,48.80
2024-05-09T13:04:59.939Z,48.80
2024-05-09T13:06:02.885Z,48.00
2024-05-09T13:07:07.836Z,47.50
2024-05-09T13:08:11.052Z,47.60
2024-05-09T13:09:13.885Z,47.10
2024-05-09T13:10:25.497Z,46.90
2024-05-09T13:11:34.464Z,47.10
2024-05-09T13:12:37.389Z,47.10
2024-05-09T13:13:40.208Z,46.90
2024-05-09T13:14:43.024Z,46.50
2024-05-09T13:15:45.972Z,46.50
2024-05-09T13:16:48.822Z,46.80
2024-05-09T13:17:51.876Z,46.90
2024-05-09T13:18:54.785Z,47.10
2024-05-09T13:19:57.655Z,47.00
2024-05-09T13:21:00.492Z,46.70
2024-05-09T13:22:03.454Z,46.80
2024-05-09T13:23:08.543Z,47.30
2024-05-09T13:24:11.764Z,47.40
2024-05-09T13:25:14.912Z,46.80
2024-05-09T13:26:17.871Z,46.40
2024-05-09T13:27:21.324Z,46.50
2024-05-09T13:28:24.196Z,46.70
2024-05-09T13:29:27.112Z,46.70
2024-05-09T13:30:38.536Z,46.60
2024-05-09T13:31:44.177Z,46.60
2024-05-09T13:32:47.105Z,47.10
2024-05-09T13:33:50.229Z,47.20
2024-05-09T13:34:53.240Z,46.90
2024-05-09T13:35:56.241Z,46.50
2024-05-09T13:36:59.633Z,46.80
2024-05-09T13:38:03.131Z,47.00
2024-05-09T13:39:06.043Z,46.70
2024-05-09T13:40:12.133Z,46.40
2024-05-09T13:41:17.175Z,46.20
2024-05-09T13:42:20.040Z,46.10
2024-05-09T13:43:23.620Z,44.90
2024-05-09T13:44:26.655Z,45.20
2024-05-09T13:45:29.621Z,45.60
2024-05-09T13:46:33.059Z,46.20
2024-05-09T13:47:36.175Z,46.80
2024-05-09T13:48:39.328Z,47.00
2024-05-09T13:49:42.518Z,47.30
2024-05-09T13:50:45.350Z,47.60
2024-05-09T13:51:48.393Z,48.00
2024-05-09T13:52:51.293Z,48.00
2024-05-09T13:53:54.229Z,47.70